Time;durP1;ratioP1;P1;durP2;ratioP2;P2;SDS_P1;SDS_P2;PMS_P1;PMS_P2;Temp;Humidity;BMP_temperature;BMP_pressure;BME280_temperature;BME280_humidity;BME280_pressure;Samples;Min_cycle;Max_cycle;Signal;HPM_P1;HPM_P2
2022/11/05 00:17:10;;;;;;;34.80;17.37;;;;;;;11.01;71.34;101048.81;5047579;28;20057;-62
2022/11/05 00:19:36;;;;;;;49.27;25.13;;;;;;;11.02;72.23;101036.53;5046770;28;20041;-62
2022/11/05 00:27:34;;;;;;;27.70;14.83;;;;;;;11.06;74.16;101032.06;5042329;28;20045;-62
2022/11/05 00:30:01;;;;;;;22.33;14.23;;;;;;;11.13;74.42;101031.81;5049579;28;20104;-63
2022/11/05 00:32:28;;;;;;;26.40;15.23;;;;;;;11.16;74.52;101022.88;5038933;28;20204;-63
2022/11/05 00:34:55;;;;;;;21.63;13.13;;;;;;;11.18;74.59;101015.09;5039350;28;20057;-62
2022/11/05 00:37:21;;;;;;;24.77;13.63;;;;;;;11.22;74.36;101016.22;5044244;28;20120;-63
2022/11/05 00:39:48;;;;;;;20.67;11.37;;;;;;;11.20;74.35;101012.00;5039025;28;20392;-63
2022/11/05 00:45:00;;;;;;;21.23;12.83;;;;;;;11.11;74.57;101015.34;5042198;28;20057;-62
2022/11/05 00:50:15;;;;;;;37.67;19.53;;;;;;;11.08;74.55;101021.47;5032809;28;20045;-64
2022/11/05 00:52:54;;;;;;;24.00;14.37;;;;;;;11.06;74.53;101017.25;5045088;28;20522;-64
2022/11/05 00:55:39;;;;;;;49.73;26.47;;;;;;;10.95;74.84;101019.16;5038583;28;20045;-63
2022/11/05 00:58:11;;;;;;;50.80;24.33;;;;;;;10.96;75.05;101017.22;5039131;28;20046;-64
2022/11/05 01:00:41;;;;;;;39.27;19.77;;;;;;;10.91;75.23;101015.25;5040884;28;20052;-62
2022/11/05 01:03:13;;;;;;;36.67;17.97;;;;;;;10.87;75.29;101016.88;5035541;28;20046;-63
2022/11/05 01:05:43;;;;;;;60.23;26.60;;;;;;;10.78;75.35;101019.34;5044534;28;20053;-63
2022/11/05 01:08:12;;;;;;;64.28;29.15;;;;;;;10.71;75.84;101013.16;5036161;28;20053;-64
2022/11/05 01:10:40;;;;;;;112.97;43.73;;;;;;;10.77;75.74;101027.97;5046115;28;20529;-64
2022/11/05 01:13:08;;;;;;;133.83;56.97;;;;;;;10.75;75.87;101030.22;5039371;28;21083;-66
2022/11/05 01:15:39;;;;;;;46.73;22.00;;;;;;;10.70;76.06;101030.19;5044917;28;20530;-66
2022/11/05 01:18:06;;;;;;;99.83;41.17;;;;;;;10.66;75.51;101019.53;5042483;28;20069;-66
2022/11/05 01:20:33;;;;;;;139.80;62.17;;;;;;;10.66;76.15;101021.50;5047476;28;20046;-66
2022/11/05 01:23:00;;;;;;;133.50;61.60;;;;;;;10.62;75.77;101018.41;5041490;28;20052;-66
2022/11/05 01:25:26;;;;;;;100.33;50.03;;;;;;;10.63;75.87;101025.69;5036921;28;20081;-66
2022/11/05 01:27:54;;;;;;;76.10;32.90;;;;;;;10.60;76.09;101025.41;5052284;28;20067;-68
2022/11/05 01:30:21;;;;;;;54.30;28.40;;;;;;;10.60;76.12;101028.19;5038127;28;20045;-68
2022/11/05 01:32:48;;;;;;;78.70;36.03;;;;;;;10.68;75.87;101027.66;5044093;28;20049;-67
2022/11/05 01:35:16;;;;;;;28.27;15.67;;;;;;;10.71;75.78;101027.13;5041105;28;20045;-68
2022/11/05 01:37:43;;;;;;;24.13;15.20;;;;;;;10.77;75.72;101023.28;5036299;28;20065;-68
2022/11/05 01:40:13;;;;;;;102.80;42.40;;;;;;;10.79;75.51;101026.59;5043447;28;20049;-69
2022/11/05 01:42:41;;;;;;;52.23;24.37;;;;;;;10.79;75.64;101011.81;5041214;28;20064;-67
2022/11/05 01:45:11;;;;;;;44.77;17.70;;;;;;;10.80;75.39;101013.47;5066537;28;20049;-65
2022/11/05 01:47:41;;;;;;;20.00;12.97;;;;;;;10.84;75.34;101017.44;5040644;28;20055;-66
2022/11/05 01:50:34;;;;;;;55.20;23.73;;;;;;;10.82;75.25;101017.69;5043879;28;20494;-66
2022/11/05 01:53:23;;;;;;;27.27;13.80;;;;;;;10.85;74.85;101016.31;5041360;28;20088;-65
2022/11/05 01:56:13;;;;;;;23.83;13.90;;;;;;;10.81;74.71;101012.38;5040038;28;20056;-66
2022/11/05 01:58:55;;;;;;;22.00;14.63;;;;;;;10.90;74.47;101014.38;5043766;28;20048;-67
2022/11/05 02:01:23;;;;;;;28.87;15.53;;;;;;;10.88;74.41;101008.22;5042046;28;20044;-65
2022/11/05 02:03:54;;;;;;;22.87;14.03;;;;;;;10.85;74.23;101011.56;5035907;28;20049;-66
2022/11/05 02:06:21;;;;;;;21.50;13.83;;;;;;;10.84;74.28;101023.03;5035707;28;20071;-64
2022/11/05 02:08:57;;;;;;;25.03;13.43;;;;;;;10.85;74.01;101011.56;5037116;28;20045;-64
2022/11/05 02:11:24;;;;;;;19.93;13.10;;;;;;;10.82;74.07;101019.66;5041399;28;20045;-66
2022/11/05 02:13:51;;;;;;;68.33;29.97;;;;;;;10.77;73.69;101009.28;5041414;28;20053;-65
2022/11/05 02:16:51;;;;;;;25.63;14.60;;;;;;;10.76;73.67;101017.94;5032232;28;20496;-66
2022/11/05 02:19:36;;;;;;;21.80;12.47;;;;;;;10.78;73.84;101024.94;5041544;28;20049;-65
2022/11/05 02:22:24;;;;;;;23.73;13.80;;;;;;;10.76;73.75;101017.94;5047940;28;20072;-65
2022/11/05 02:25:09;;;;;;;27.73;14.53;;;;;;;10.70;73.91;101014.28;5037068;28;20060;-66
2022/11/05 02:28:02;;;;;;;21.33;13.20;;;;;;;10.51;73.96;100999.91;5048590;28;20403;-66
2022/11/05 02:30:41;;;;;;;18.67;11.53;;;;;;;10.60;74.26;101025.41;5062873;28;20045;-64
2022/11/05 02:33:26;;;;;;;22.30;12.57;;;;;;;10.46;74.36;101013.00;5040963;28;20523;-64
2022/11/05 02:36:18;;;;;;;22.90;12.47;;;;;;;10.47;74.29;101007.16;5035891;28;20059;-66
2022/11/05 02:39:15;;;;;;;16.57;10.60;;;;;;;10.48;74.48;101003.25;5033647;28;20068;-65
2022/11/05 02:42:10;;;;;;;18.47;10.40;;;;;;;10.44;74.65;101011.31;5040821;28;20053;-65
2022/11/05 02:44:46;;;;;;;17.57;9.43;;;;;;;10.44;74.31;101002.09;5034837;28;20041;-65
2022/11/05 02:47:28;;;;;;;15.47;8.37;;;;;;;10.40;74.73;101003.75;5036768;28;20408;-63
2022/11/05 02:50:19;;;;;;;19.67;10.80;;;;;;;10.30;75.09;101000.88;5036552;28;20049;-63
2022/11/05 02:53:24;;;;;;;19.20;11.53;;;;;;;10.17;75.35;100997.41;5047732;28;20053;-62
2022/11/05 02:55:58;;;;;;;7.97;6.67;;;;;;;10.15;75.53;100996.84;5033736;28;20049;-63
2022/11/05 02:58:29;;;;;;;21.00;12.27;;;;;;;10.15;75.46;100995.97;5036731;28;20218;-64
2022/11/05 03:00:57;;;;;;;20.20;11.83;;;;;;;10.13;75.50;100999.06;5042336;28;20416;-64
2022/11/05 03:03:30;;;;;;;19.27;10.93;;;;;;;10.09;75.52;100995.13;5038568;28;20045;-63
2022/11/05 03:06:34;;;;;;;18.93;11.77;;;;;;;10.07;75.48;101010.44;5040537;28;20057;-64
2022/11/05 03:09:25;;;;;;;22.73;11.77;;;;;;;10.07;75.42;101000.09;5037682;28;20053;-64
2022/11/05 03:12:15;;;;;;;26.93;12.60;;;;;;;10.19;74.95;101003.56;5039482;28;20049;-64
2022/11/05 03:15:12;;;;;;;21.90;11.95;;;;;;;10.10;75.03;100994.00;5041824;28;20052;-63
2022/11/05 03:17:58;;;;;;;26.43;12.03;;;;;;;10.10;74.88;101005.16;5035103;28;20057;-64
2022/11/05 03:20:34;;;;;;;19.83;11.90;;;;;;;10.15;74.71;100994.06;5033385;28;20061;-64
2022/11/05 03:23:20;;;;;;;26.20;13.37;;;;;;;10.18;74.79;100999.06;5043888;28;20045;-65
2022/11/05 03:25:52;;;;;;;18.03;8.77;;;;;;;10.20;74.91;100996.88;5040033;28;20057;-63
2022/11/05 03:28:23;;;;;;;17.00;10.23;;;;;;;10.25;74.82;100998.00;5040813;28;20401;-64
2022/11/05 03:30:53;;;;;;;18.80;9.53;;;;;;;10.29;75.07;101007.56;5032430;28;20049;-65
2022/11/05 03:33:25;;;;;;;14.43;10.00;;;;;;;10.31;74.67;100995.03;5038262;28;20045;-65
2022/11/05 03:36:03;;;;;;;26.00;12.77;;;;;;;10.30;74.73;100992.50;5032426;28;20045;-66
2022/11/05 03:38:36;;;;;;;15.63;9.30;;;;;;;10.46;74.38;100991.53;5036640;28;20068;-65
2022/11/05 03:41:07;;;;;;;12.90;8.73;;;;;;;10.46;74.40;100990.66;5043958;28;20049;-65
2022/11/05 03:43:39;;;;;;;13.70;9.60;;;;;;;10.53;73.91;100992.13;5040173;28;20050;-65
2022/11/05 03:46:18;;;;;;;14.37;8.47;;;;;;;10.56;73.82;100980.38;5043118;28;20053;-66
2022/11/05 03:48:49;;;;;;;20.90;10.67;;;;;;;10.62;73.71;100978.47;5039530;28;20469;-65
2022/11/05 03:51:27;;;;;;;19.93;10.23;;;;;;;10.62;73.63;100990.47;5049897;28;20137;-64
2022/11/05 03:53:56;;;;;;;17.63;10.43;;;;;;;10.57;73.57;100982.09;5035969;28;20045;-65
2022/11/05 03:56:36;;;;;;;20.13;10.90;;;;;;;10.47;73.52;100983.97;5041969;28;20137;-65
2022/11/05 03:59:05;;;;;;;21.80;10.45;;;;;;;10.38;73.88;100981.66;5044406;28;20412;-66
2022/11/05 04:01:32;;;;;;;19.30;10.23;;;;;;;10.32;74.04;100981.91;5041038;28;20522;-66
2022/11/05 04:03:59;;;;;;;17.53;9.50;;;;;;;10.24;74.13;100982.38;5040666;28;20140;-65
2022/11/05 04:14:42;;;;;;;20.43;12.53;;;;;;;10.01;74.81;100973.25;5041179;28;20143;-66
2022/11/05 04:17:09;;;;;;;25.03;11.37;;;;;;;10.05;74.77;100974.44;5039406;28;20049;-65
2022/11/05 04:25:09;;;;;;;12.57;8.70;;;;;;;10.24;74.38;100976.81;5037099;28;20052;-65
2022/11/05 04:27:36;;;;;;;13.43;9.50;;;;;;;10.32;74.18;100971.56;5040545;28;20518;-65
2022/11/05 04:30:19;;;;;;;11.50;7.53;;;;;;;10.35;73.92;100973.81;5039489;28;20407;-64
2022/11/05 04:33:06;;;;;;;14.90;9.27;;;;;;;10.31;73.77;100966.28;5039837;28;20137;-66
2022/11/05 04:35:34;;;;;;;8.43;6.07;;;;;;;10.31;73.56;100964.31;5036564;28;20042;-64
2022/11/05 04:38:06;;;;;;;14.33;7.90;;;;;;;10.28;73.53;100966.81;5036362;28;20052;-64
2022/11/05 04:40:34;;;;;;;12.13;8.87;;;;;;;10.24;73.61;100974.00;5038901;28;20045;-65
2022/11/05 04:43:01;;;;;;;14.87;8.67;;;;;;;10.17;73.84;100977.88;5042797;28;20078;-64
2022/11/05 04:45:30;;;;;;;12.23;8.40;;;;;;;10.13;73.57;100985.09;5037664;28;20046;-64
2022/11/05 04:47:57;;;;;;;19.47;10.37;;;;;;;10.09;73.69;100999.84;5064563;28;20052;-64
2022/11/05 04:50:25;;;;;;;13.77;9.10;;;;;;;10.03;73.83;100996.19;5031994;28;20103;-64
2022/11/05 04:52:52;;;;;;;17.07;10.10;;;;;;;9.95;73.92;101000.31;5042546;28;20132;-62
2022/11/05 04:55:19;;;;;;;17.83;10.20;;;;;;;9.93;74.07;100998.88;5040975;28;20053;-62
2022/11/05 04:57:48;;;;;;;13.57;8.67;;;;;;;9.87;74.24;101003.56;5048000;28;20415;-61
2022/11/05 05:00:16;;;;;;;13.03;8.53;;;;;;;9.85;74.41;101003.00;5036686;28;20052;-62
2022/11/05 05:02:43;;;;;;;15.87;8.00;;;;;;;9.82;74.47;101002.69;5036126;28;20068;-63
2022/11/05 05:05:10;;;;;;;14.33;7.87;;;;;;;9.79;74.85;100994.84;5040475;28;20228;-62
2022/11/05 05:07:37;;;;;;;10.77;7.40;;;;;;;9.72;75.00;100993.09;5045330;28;20053;-62
2022/11/05 05:10:06;;;;;;;15.63;9.13;;;;;;;9.65;75.24;100989.69;5042708;28;20042;-64
2022/11/05 05:12:33;;;;;;;7.97;6.47;;;;;;;9.53;75.57;100982.59;5044214;28;20046;-62
2022/11/05 05:15:00;;;;;;;12.97;8.60;;;;;;;9.57;75.58;101001.34;5047129;28;20467;-62
2022/11/05 05:17:27;;;;;;;15.23;9.50;;;;;;;9.54;75.77;101007.44;5034299;28;20065;-62
2022/11/05 05:22:39;;;;;;;16.00;10.37;;;;;;;9.55;75.67;101009.09;5049397;28;20052;-64
2022/11/05 05:25:06;;;;;;;16.53;11.23;;;;;;;9.57;75.42;101011.63;5037296;28;20049;-63
2022/11/05 05:27:33;;;;;;;16.90;8.77;;;;;;;9.58;75.50;101016.13;5044390;28;20056;-64
2022/11/05 05:30:00;;;;;;;12.33;7.97;;;;;;;9.49;75.65;101010.16;5037799;28;20041;-64
2022/11/05 05:32:27;;;;;;;9.63;5.93;;;;;;;9.42;75.99;101015.94;5035598;28;20049;-62
2022/11/05 05:34:54;;;;;;;16.13;7.97;;;;;;;9.35;76.10;101009.72;5040294;28;20500;-62
2022/11/05 05:37:21;;;;;;;9.20;7.33;;;;;;;9.31;76.11;100996.59;5036960;28;20052;-63
2022/11/05 05:39:48;;;;;;;10.23;7.40;;;;;;;9.34;76.40;101001.63;5042327;28;20492;-63
2022/11/05 05:42:15;;;;;;;9.17;6.73;;;;;;;9.39;76.29;101007.25;5038679;28;20053;-62
2022/11/05 05:44:42;;;;;;;13.80;7.37;;;;;;;9.36;76.08;100994.66;5047922;28;20056;-62
2022/11/05 05:47:08;;;;;;;11.63;7.80;;;;;;;9.52;75.78;101015.22;5041632;28;20407;-63
2022/11/05 05:49:35;;;;;;;16.10;9.87;;;;;;;9.63;75.49;101022.56;5029719;28;20041;-62
2022/11/05 05:52:02;;;;;;;13.43;7.43;;;;;;;9.69;75.20;101015.09;5045041;28;20061;-62
2022/11/05 05:54:29;;;;;;;10.43;7.00;;;;;;;9.76;74.90;101001.78;5036969;28;20522;-62
2022/11/05 05:57:00;;;;;;;10.83;5.87;;;;;;;9.80;74.57;101005.72;5045270;28;20056;-62
2022/11/05 05:59:27;;;;;;;11.93;5.87;;;;;;;9.81;74.50;101003.78;5044501;28;20061;-62
2022/11/05 06:01:54;;;;;;;10.67;5.97;;;;;;;9.85;74.30;101016.13;5039857;28;20060;-62
2022/11/05 06:04:21;;;;;;;10.27;6.77;;;;;;;9.87;73.99;101016.66;5039615;28;20077;-62
2022/11/05 06:06:48;;;;;;;10.60;5.50;;;;;;;9.80;74.00;101013.25;5028471;28;20057;-61
2022/11/05 06:09:15;;;;;;;5.57;5.07;;;;;;;9.74;74.13;101001.19;5034797;28;20048;-62
2022/11/05 06:11:41;;;;;;;9.13;5.70;;;;;;;9.75;74.09;101008.47;5033350;28;20042;-62
2022/11/05 06:14:10;;;;;;;7.13;5.60;;;;;;;9.73;74.06;101000.34;5030614;28;20049;-62
2022/11/05 06:16:38;;;;;;;8.70;5.83;;;;;;;9.71;73.78;100993.38;5042152;28;20060;-62
2022/11/05 06:19:06;;;;;;;13.80;6.60;;;;;;;9.70;73.73;101003.69;5032607;28;20451;-62
2022/11/05 06:21:33;;;;;;;9.50;5.70;;;;;;;9.69;73.73;101004.78;5032053;28;20057;-62
2022/11/05 06:24:01;;;;;;;13.07;6.70;;;;;;;9.67;73.73;101007.00;5039739;28;20049;-62
2022/11/05 06:26:29;;;;;;;9.67;7.27;;;;;;;9.58;74.08;101008.59;5044097;28;20045;-63
2022/11/05 06:28:56;;;;;;;7.60;6.00;;;;;;;9.43;74.16;101017.59;5043169;28;20045;-62
2022/11/05 06:31:23;;;;;;;23.57;10.07;;;;;;;9.45;74.13;101020.16;5036243;28;20053;-63
2022/11/05 06:33:50;;;;;;;12.50;8.27;;;;;;;9.44;74.01;101019.31;5039249;28;20069;-63
2022/11/05 06:36:18;;;;;;;17.70;10.67;;;;;;;9.46;73.48;101007.88;5039574;28;20052;-62
2022/11/05 06:38:45;;;;;;;15.50;9.03;;;;;;;9.50;73.26;101017.41;5041628;28;20523;-63
2022/11/05 06:41:11;;;;;;;17.87;9.00;;;;;;;9.45;72.97;101026.56;5038439;28;20045;-62
2022/11/05 06:43:39;;;;;;;17.57;9.90;;;;;;;9.43;72.90;101027.91;5040945;28;20415;-63
2022/11/05 06:46:06;;;;;;;16.00;10.53;;;;;;;9.41;72.93;101027.34;5040091;28;20048;-62
2022/11/05 06:48:33;;;;;;;14.40;9.77;;;;;;;9.35;72.78;101020.88;5033672;28;20049;-62
2022/11/05 06:51:00;;;;;;;16.40;8.90;;;;;;;9.28;73.21;101019.41;5039175;28;20060;-62
2022/11/05 06:53:27;;;;;;;15.40;8.60;;;;;;;9.24;73.44;101014.34;5038766;28;20041;-62
2022/11/05 06:55:54;;;;;;;16.20;8.90;;;;;;;9.21;73.76;101017.66;5047610;28;20409;-62
2022/11/05 06:58:21;;;;;;;14.70;9.33;;;;;;;9.12;74.21;101004.44;5047281;28;20045;-63
2022/11/05 07:00:48;;;;;;;8.13;6.07;;;;;;;9.00;74.59;101010.16;5037130;28;20053;-63
2022/11/05 07:03:14;;;;;;;4.87;4.17;;;;;;;8.87;75.11;100999.38;5034218;28;20119;-63
2022/11/05 07:05:45;;;;;;;5.77;4.83;;;;;;;8.85;75.33;101004.34;5036550;28;20053;-63
2022/11/05 07:08:12;;;;;;;6.38;4.35;;;;;;;8.73;75.72;100994.19;5035997;28;20049;-62
2022/11/05 07:10:38;;;;;;;7.53;5.73;;;;;;;8.53;76.64;100975.25;5037595;28;20037;-62
2022/11/05 07:13:05;;;;;;;5.40;4.90;;;;;;;8.31;77.38;100979.91;5037654;28;20053;-63
2022/11/05 07:15:35;;;;;;;13.03;5.03;;;;;;;8.18;78.07;100994.19;5034533;28;20452;-62
2022/11/05 07:18:06;;;;;;;7.33;6.00;;;;;;;8.07;78.51;100985.69;5039803;28;20052;-62
2022/11/05 07:20:33;;;;;;;8.93;5.50;;;;;;;7.97;78.80;100982.72;5041380;28;20041;-61
2022/11/05 07:23:11;;;;;;;5.33;3.87;;;;;;;7.84;79.28;100983.88;5050944;28;20065;-62
2022/11/05 07:25:40;;;;;;;5.00;4.47;;;;;;;7.85;79.69;100987.50;5044206;28;20045;-61
2022/11/05 07:28:08;;;;;;;9.23;6.20;;;;;;;7.80;79.69;100985.50;5052994;28;20048;-62
2022/11/05 07:30:35;;;;;;;10.83;6.17;;;;;;;7.92;79.56;101001.25;5052466;28;20037;-62
2022/11/05 07:33:02;;;;;;;8.93;6.50;;;;;;;8.05;79.50;101009.25;5037123;28;20095;-62
2022/11/05 07:35:29;;;;;;;11.43;6.77;;;;;;;8.19;79.25;101015.34;5039007;28;20058;-62
2022/11/05 07:37:56;;;;;;;8.60;7.63;;;;;;;8.39;78.96;101021.25;5044839;28;20056;-62
2022/11/05 07:40:24;;;;;;;10.67;8.33;;;;;;;8.56;78.53;101010.09;5039365;28;20048;-62
2022/11/05 07:42:54;;;;;;;11.53;7.43;;;;;;;8.65;78.05;101005.78;5033868;28;20077;-62
2022/11/05 07:45:21;;;;;;;13.37;8.47;;;;;;;8.82;77.57;101013.22;5042254;28;20520;-62
2022/11/05 07:47:57;;;;;;;9.70;7.07;;;;;;;8.99;77.39;101019.56;5040524;28;20309;-61
2022/11/05 07:50:26;;;;;;;11.07;9.17;;;;;;;9.20;76.72;101017.91;5039115;28;20045;-63
2022/11/05 07:52:58;;;;;;;17.27;9.30;;;;;;;9.39;76.39;101021.19;5043609;28;20685;-62
2022/11/05 07:55:24;;;;;;;20.00;9.73;;;;;;;9.70;75.94;101031.56;5036333;28;20049;-62
2022/11/05 07:57:51;;;;;;;15.20;9.53;;;;;;;10.00;75.46;101032.97;5036441;28;20045;-63
2022/11/05 08:00:22;;;;;;;11.67;8.40;;;;;;;10.39;74.91;101019.66;5042353;28;20049;-63
2022/11/05 08:03:12;;;;;;;13.83;7.77;;;;;;;10.38;73.56;101017.97;5042859;28;20044;-62
2022/11/05 08:05:43;;;;;;;8.80;6.60;;;;;;;10.42;73.58;101027.47;5046866;28;20081;-62
2022/11/05 08:08:12;;;;;;;11.67;7.93;;;;;;;10.59;73.22;101032.06;5033800;28;20057;-62
2022/11/05 08:10:39;;;;;;;12.70;9.17;;;;;;;10.65;72.68;101022.63;5056578;28;20063;-62
2022/11/05 08:13:07;;;;;;;13.20;8.20;;;;;;;11.18;72.04;101031.84;5033511;28;20068;-62
2022/11/05 08:15:34;;;;;;;9.70;7.80;;;;;;;11.72;71.19;101041.81;5036047;28;20056;-62
2022/11/05 08:18:04;;;;;;;15.43;8.03;;;;;;;11.95;70.54;101046.91;5037551;28;20053;-61
2022/11/05 08:20:32;;;;;;;9.77;7.85;;;;;;;12.20;70.37;101034.06;5039663;28;20038;-62
2022/11/05 08:22:58;;;;;;;13.40;7.40;;;;;;;12.66;69.82;101046.06;5038649;28;20392;-62
2022/11/05 08:25:26;;;;;;;16.20;8.23;;;;;;;13.34;68.86;101061.63;5037493;28;20052;-61
2022/11/05 08:28:07;;;;;;;11.73;9.70;;;;;;;13.72;67.92;101060.03;5031924;28;20064;-62
2022/11/05 08:30:34;;;;;;;9.73;8.63;;;;;;;14.22;67.29;101055.19;5036932;28;20049;-62
2022/11/05 08:33:04;;;;;;;15.20;8.63;;;;;;;14.70;66.04;101044.16;5039482;28;20049;-62
2022/11/05 08:35:34;;;;;;;15.10;9.00;;;;;;;15.26;65.00;101035.06;5039532;28;20419;-62
2022/11/05 08:38:03;;;;;;;15.10;9.20;;;;;;;15.92;63.46;101040.94;5040778;28;20056;-62
2022/11/05 08:40:32;;;;;;;8.20;6.85;;;;;;;16.51;62.15;101037.47;5057906;28;20059;-61
2022/11/05 08:43:01;;;;;;;13.35;7.63;;;;;;;16.99;60.25;101033.47;5042408;28;20056;-62
2022/11/05 08:45:28;;;;;;;9.02;7.57;;;;;;;17.82;58.60;101033.47;5047879;28;20053;-62
2022/11/05 08:48:15;;;;;;;9.02;6.93;;;;;;;18.36;57.77;101029.59;5040035;28;20411;-62
2022/11/05 08:50:44;;;;;;;9.55;7.47;;;;;;;18.74;55.15;101040.53;5037443;28;20041;-62
2022/11/05 08:53:12;;;;;;;8.43;7.33;;;;;;;19.61;53.69;101038.88;5051048;28;20052;-62
2022/11/05 08:55:39;;;;;;;13.40;6.82;;;;;;;20.10;52.46;101042.47;5046662;28;20298;-65
2022/11/05 08:58:11;;;;;;;7.80;6.60;;;;;;;19.99;50.66;101032.63;5047582;28;20056;-64
2022/11/05 09:00:38;;;;;;;9.45;7.55;;;;;;;20.46;50.29;101031.94;5034542;28;20045;-63
2022/11/05 09:03:07;;;;;;;11.55;7.47;;;;;;;21.13;50.08;101024.75;5057007;28;20436;-64
2022/11/05 09:05:39;;;;;;;10.00;6.40;;;;;;;21.77;48.26;101033.13;5046573;28;20415;-63
2022/11/05 09:08:08;;;;;;;7.95;6.65;;;;;;;21.27;46.61;101031.88;5036187;28;20045;-62
2022/11/05 09:10:35;;;;;;;7.63;6.85;;;;;;;20.23;46.49;101034.94;5064652;28;20057;-63
2022/11/05 09:13:03;;;;;;;7.53;6.40;;;;;;;19.11;46.84;101036.41;5034151;28;20053;-63
2022/11/05 09:15:30;;;;;;;9.73;7.00;;;;;;;20.11;46.33;101038.47;5040799;28;20050;-63
2022/11/05 09:17:58;;;;;;;12.35;6.70;;;;;;;20.27;46.08;101023.78;5042525;28;20064;-63
2022/11/05 09:20:25;;;;;;;8.63;7.72;;;;;;;19.69;46.02;101013.75;5037036;28;20475;-62
2022/11/05 09:22:52;;;;;;;8.23;7.53;;;;;;;18.91;46.59;101011.50;5045804;28;20558;-64
2022/11/05 09:25:19;;;;;;;7.30;6.35;;;;;;;18.20;47.81;101020.66;5033537;28;20489;-62
2022/11/05 09:27:46;;;;;;;13.52;7.90;;;;;;;18.44;47.75;101020.34;5032985;28;20053;-63
2022/11/05 09:30:13;;;;;;;9.52;6.53;;;;;;;18.66;47.47;101030.78;5029344;28;20148;-63
2022/11/05 09:32:40;;;;;;;10.23;8.32;;;;;;;18.59;47.08;101030.41;5035176;28;20416;-63
2022/11/05 09:35:09;;;;;;;15.20;10.10;;;;;;;18.85;46.22;101024.09;5044095;28;20412;-65
2022/11/05 09:37:36;;;;;;;14.80;9.35;;;;;;;19.66;45.47;101032.25;5041637;28;20056;-64
2022/11/05 09:40:03;;;;;;;11.70;8.13;;;;;;;20.01;44.40;101037.97;5035220;28;20050;-63
2022/11/05 09:42:38;;;;;;;11.60;8.02;;;;;;;19.48;44.46;101036.16;5043415;28;20045;-63
2022/11/05 09:45:15;;;;;;;8.45;7.22;;;;;;;19.98;44.16;101035.78;5032160;28;20049;-64
2022/11/05 09:47:47;;;;;;;9.80;8.15;;;;;;;21.32;43.25;101036.53;5040040;28;20048;-64
2022/11/05 09:50:19;;;;;;;7.53;6.82;;;;;;;22.23;40.92;101034.16;5040248;28;20053;-65
2022/11/05 09:52:46;;;;;;;8.60;7.25;;;;;;;22.85;40.42;101036.03;5043768;28;20444;-63
2022/11/05 09:55:30;;;;;;;11.43;8.55;;;;;;;22.38;39.39;101032.66;5035974;28;20060;-63
2022/11/05 09:58:02;;;;;;;12.02;9.85;;;;;;;21.80;40.05;101023.09;5043090;28;20059;-65
2022/11/05 10:00:31;;;;;;;7.85;6.43;;;;;;;21.42;40.41;101019.13;5037472;28;20056;-63
2022/11/05 10:03:10;;;;;;;8.05;6.82;;;;;;;22.08;40.96;101029.88;5037877;28;20519;-63
2022/11/05 10:05:39;;;;;;;11.07;7.60;;;;;;;23.55;38.63;101013.19;5039587;28;20594;-64
2022/11/05 10:08:22;;;;;;;8.25;7.55;;;;;;;24.27;36.53;101016.28;5037099;28;20569;-64
2022/11/05 10:10:52;;;;;;;6.72;6.07;;;;;;;23.13;38.34;101024.84;5033083;28;20084;-64
2022/11/05 10:13:43;;;;;;;6.30;5.70;;;;;;;22.30;38.42;101013.69;5045521;28;20495;-66
2022/11/05 10:16:18;;;;;;;9.73;7.00;;;;;;;21.81;39.04;101019.06;5043060;28;20128;-64
2022/11/05 10:18:53;;;;;;;11.05;7.80;;;;;;;22.47;38.96;101008.66;5033607;28;20539;-64
2022/11/05 10:21:21;;;;;;;6.18;5.60;;;;;;;22.56;38.37;101016.25;5040314;28;20052;-65
2022/11/05 10:24:19;;;;;;;11.95;7.93;;;;;;;21.80;39.19;101026.75;5034299;28;20470;-64
2022/11/05 10:26:51;;;;;;;7.25;6.55;;;;;;;22.33;38.89;101022.34;5046773;28;20045;-66
2022/11/05 10:29:28;;;;;;;7.25;6.57;;;;;;;23.86;36.94;101015.47;5040697;28;20106;-64
2022/11/05 10:31:57;;;;;;;8.95;8.05;;;;;;;23.83;36.87;101019.03;5038213;28;20049;-65
2022/11/05 10:34:29;;;;;;;9.68;7.15;;;;;;;25.15;35.17;101016.31;5034129;28;20080;-66
2022/11/05 10:36:56;;;;;;;6.75;5.57;;;;;;;25.41;35.11;101027.19;5044158;28;20384;-64
2022/11/05 10:39:26;;;;;;;10.25;6.50;;;;;;;25.32;34.71;101020.00;5045218;28;20049;-65
2022/11/05 10:42:18;;;;;;;10.30;8.90;;;;;;;24.99;35.70;101030.59;5031953;28;20053;-65
2022/11/05 10:45:14;;;;;;;10.20;7.95;;;;;;;26.53;34.22;101019.97;5034360;28;20057;-64
2022/11/05 10:47:56;;;;;;;15.60;8.82;;;;;;;26.68;33.45;101035.41;5041976;28;20049;-65
2022/11/05 10:50:28;;;;;;;12.32;9.18;;;;;;;27.45;32.83;101017.16;5036958;28;20049;-65
2022/11/05 10:53:10;;;;;;;9.85;8.25;;;;;;;27.86;32.24;101031.75;5041864;28;20049;-65
2022/11/05 10:55:43;;;;;;;11.07;9.77;;;;;;;28.11;31.65;101026.38;5039618;28;20049;-64
2022/11/05 10:58:16;;;;;;;9.93;8.90;;;;;;;28.82;32.07;101029.31;5045737;28;20049;-64
2022/11/05 11:00:58;;;;;;;15.32;8.95;;;;;;;29.80;29.92;101029.00;5044669;28;20037;-65
2022/11/05 11:03:34;;;;;;;12.65;9.52;;;;;;;30.33;30.12;101028.53;5033884;28;20077;-64
2022/11/05 11:06:06;;;;;;;12.18;9.10;;;;;;;30.06;29.31;101025.06;5038178;28;20522;-65
2022/11/05 11:08:35;;;;;;;12.43;10.07;;;;;;;30.83;28.69;101029.53;5042131;28;20049;-64
2022/11/05 11:11:06;;;;;;;10.13;8.68;;;;;;;31.04;28.18;101027.94;5042133;28;20068;-64
2022/11/05 11:13:57;;;;;;;10.60;7.78;;;;;;;31.13;28.41;101023.41;5039722;28;20060;-64
2022/11/05 11:16:26;;;;;;;12.77;10.10;;;;;;;31.59;28.00;101030.44;5033916;28;20050;-65
2022/11/05 11:18:59;;;;;;;10.25;9.25;;;;;;;31.89;27.04;101023.44;5050348;28;20049;-64
2022/11/05 11:21:29;;;;;;;10.10;8.98;;;;;;;32.16;27.02;101021.69;5036504;28;20411;-64
2022/11/05 11:23:58;;;;;;;10.93;8.73;;;;;;;32.54;25.95;101019.09;5052415;28;20408;-64
2022/11/05 11:26:34;;;;;;;13.07;11.88;;;;;;;33.12;25.60;101017.53;5038916;28;20064;-64
2022/11/05 11:29:14;;;;;;;11.25;8.10;;;;;;;32.86;25.44;101021.81;5046486;28;20057;-64
2022/11/05 11:31:41;;;;;;;10.30;8.10;;;;;;;33.17;24.76;101025.75;5041075;28;20041;-64
2022/11/05 11:34:17;;;;;;;13.93;12.68;;;;;;;33.43;24.94;101006.91;5039656;28;20053;-65
2022/11/05 11:36:52;;;;;;;13.68;12.48;;;;;;;34.12;24.56;101010.84;5042458;28;20049;-64
2022/11/05 11:39:25;;;;;;;14.90;13.75;;;;;;;34.36;23.69;101008.03;5045051;28;20053;-64
2022/11/05 11:41:56;;;;;;;14.13;12.98;;;;;;;34.83;23.53;101000.38;5034403;28;20523;-63
2022/11/05 11:44:29;;;;;;;10.63;8.93;;;;;;;34.22;23.10;100993.72;5039578;28;20072;-64
2022/11/05 11:47:01;;;;;;;10.65;7.45;;;;;;;34.22;23.32;100990.84;5042223;28;20060;-63
2022/11/05 11:49:37;;;;;;;10.45;7.80;;;;;;;32.73;24.01;100983.88;5043750;28;20060;-64
2022/11/05 11:52:13;;;;;;;10.57;8.00;;;;;;;33.00;24.25;100980.44;5048045;28;20394;-65
2022/11/05 11:54:39;;;;;;;10.32;8.48;;;;;;;32.48;23.68;100978.25;5041847;28;20053;-64
2022/11/05 11:57:28;;;;;;;9.85;7.82;;;;;;;32.47;24.31;100972.88;5039645;28;20044;-64
2022/11/05 11:59:56;;;;;;;9.43;8.50;;;;;;;32.31;23.77;100974.19;5048431;28;20060;-63
2022/11/05 12:02:51;;;;;;;10.55;8.55;;;;;;;32.91;24.05;100959.78;5033535;28;20513;-64
2022/11/05 12:05:52;;;;;;;9.18;7.50;;;;;;;33.34;23.35;100962.38;5050001;28;20107;-65
2022/11/05 12:08:43;;;;;;;8.52;7.63;;;;;;;33.60;22.56;100966.69;5038610;28;20049;-64
2022/11/05 12:11:41;;;;;;;10.15;8.07;;;;;;;32.65;23.76;100953.38;5038396;28;20041;-64
2022/11/05 12:14:12;;;;;;;11.48;9.18;;;;;;;31.71;23.93;100931.84;5039318;28;21605;-64
2022/11/05 12:16:39;;;;;;;13.10;8.27;;;;;;;32.36;23.78;100957.63;5052012;28;20049;-64
2022/11/05 12:19:30;;;;;;;9.32;8.35;;;;;;;32.44;23.54;100948.53;5034103;28;20049;-63
2022/11/05 12:21:57;;;;;;;12.88;10.23;;;;;;;33.11;23.21;100951.41;5038257;28;20041;-66
2022/11/05 12:24:49;;;;;;;16.85;15.50;;;;;;;34.41;23.03;100946.69;5039670;28;20053;-64
2022/11/05 12:27:16;;;;;;;9.85;8.13;;;;;;;33.97;22.20;100955.06;5037856;28;20059;-64